Time;durP1;ratioP1;P1;durP2;ratioP2;P2;SDS_P1;SDS_P2;PMS_P1;PMS_P2;Temp;Humidity;BMP_temperature;BMP_pressure;BME280_temperature;BME280_humidity;BME280_pressure;Samples;Min_cycle;Max_cycle;Signal;HPM_P1;HPM_P2
2023/06/25 00:00:11;;;;;;;9.85;6.68;;;;;;;11.37;100.00;93475.78;2096023;28;20925;-75
2023/06/25 00:01:12;;;;;;;8.00;7.00;;;;;;;11.40;100.00;93480.34;2100986;28;20082;-75
2023/06/25 00:02:13;;;;;;;8.43;6.88;;;;;;;11.31;100.00;93475.53;2105307;28;20028;-75
2023/06/25 00:03:14;;;;;;;9.75;6.88;;;;;;;11.45;100.00;93477.16;2109263;28;20458;-76
2023/06/25 00:04:15;;;;;;;9.32;6.78;;;;;;;11.37;100.00;93473.91;2097135;28;20042;-73
2023/06/25 00:05:16;;;;;;;8.82;6.78;;;;;;;11.38;100.00;93480.00;2093442;28;20039;-74
2023/06/25 00:06:19;;;;;;;11.95;6.97;;;;;;;11.35;100.00;93481.56;2110338;28;20110;-74
2023/06/25 00:07:20;;;;;;;10.45;7.05;;;;;;;11.41;100.00;93477.22;2116793;27;20051;-74
2023/06/25 00:08:21;;;;;;;11.10;7.50;;;;;;;11.39;100.00;93481.50;2118914;27;20041;-74
2023/06/25 00:09:22;;;;;;;9.52;7.10;;;;;;;11.43;100.00;93484.88;2116293;27;20181;-75
2023/06/25 00:10:23;;;;;;;9.48;7.20;;;;;;;11.30;100.00;93474.03;2104513;28;20035;-76
2023/06/25 00:11:24;;;;;;;10.00;6.95;;;;;;;11.29;100.00;93475.94;2113414;28;20027;-76
2023/06/25 00:12:25;;;;;;;9.20;7.22;;;;;;;11.38;100.00;93474.66;2109872;28;20115;-74
2023/06/25 00:13:27;;;;;;;10.73;7.03;;;;;;;11.45;100.00;93477.16;2096424;28;20037;-75
2023/06/25 00:14:28;;;;;;;7.93;6.82;;;;;;;11.35;100.00;93485.00;2113543;28;20051;-74
2023/06/25 00:15:29;;;;;;;10.48;7.88;;;;;;;11.23;100.00;93468.78;2120333;27;20390;-75
2023/06/25 00:16:33;;;;;;;8.15;7.25;;;;;;;11.14;100.00;93471.25;2098013;28;20035;-76
2023/06/25 00:17:34;;;;;;;9.15;6.57;;;;;;;11.11;100.00;93475.53;2113228;28;20081;-75
2023/06/25 00:18:35;;;;;;;12.18;7.47;;;;;;;11.18;100.00;93472.69;2117805;27;20038;-75
2023/06/25 00:19:41;;;;;;;11.25;7.10;;;;;;;11.19;100.00;93478.81;2119182;27;20444;-74
2023/06/25 00:20:42;;;;;;;10.30;7.03;;;;;;;11.12;100.00;93470.91;2122735;27;20029;-76
2023/06/25 00:21:43;;;;;;;8.57;6.53;;;;;;;11.08;100.00;93474.41;2119616;27;20381;-74
2023/06/25 00:22:45;;;;;;;8.60;6.90;;;;;;;11.15;100.00;93475.44;2109296;28;20093;-74
2023/06/25 00:23:46;;;;;;;12.50;6.50;;;;;;;11.23;100.00;93474.88;2119038;27;20038;-74
2023/06/25 00:24:47;;;;;;;8.05;6.72;;;;;;;11.14;100.00;93482.72;2104351;28;20032;-73
2023/06/25 00:25:50;;;;;;;9.05;6.88;;;;;;;11.04;100.00;93479.06;2102017;28;20036;-74
2023/06/25 00:26:51;;;;;;;10.27;7.30;;;;;;;11.07;100.00;93480.19;2119339;27;20073;-75
2023/06/25 00:27:52;;;;;;;12.13;6.85;;;;;;;11.15;100.00;93481.56;2118169;27;20035;-75
2023/06/25 00:28:54;;;;;;;12.68;7.35;;;;;;;11.01;100.00;93479.88;2115386;27;20430;-74
2023/06/25 00:30:00;;;;;;;8.43;6.93;;;;;;;11.10;100.00;93468.63;2115564;27;20042;-74
2023/06/25 00:31:01;;;;;;;11.07;7.45;;;;;;;11.08;100.00;93473.66;2107889;28;20131;-74
2023/06/25 00:32:03;;;;;;;13.40;7.55;;;;;;;11.03;100.00;93474.13;2117823;27;20027;-74
2023/06/25 00:33:05;;;;;;;8.57;7.22;;;;;;;10.96;100.00;93469.66;2107677;28;20059;-74
2023/06/25 00:34:06;;;;;;;9.30;7.70;;;;;;;10.88;100.00;93468.25;2100682;28;20551;-76
2023/06/25 00:35:13;;;;;;;10.27;7.65;;;;;;;10.94;100.00;93466.63;2100328;28;20024;-74
2023/06/25 00:36:22;;;;;;;9.32;7.47;;;;;;;11.02;100.00;93464.59;2109864;28;20119;-74
2023/06/25 00:37:29;;;;;;;10.57;8.07;;;;;;;10.95;100.00;93462.78;2119650;27;20628;-75
2023/06/25 00:38:51;;;;;;;9.48;7.45;;;;;;;11.02;100.00;93467.28;2108867;28;20059;-73
2023/06/25 00:39:58;;;;;;;10.77;7.18;;;;;;;11.02;100.00;93460.00;2118549;27;20050;-75
2023/06/25 00:41:03;;;;;;;10.82;7.15;;;;;;;10.98;100.00;93461.22;2108749;28;20481;-76
2023/06/25 00:42:09;;;;;;;11.70;7.13;;;;;;;10.94;100.00;93463.97;2101424;27;20035;-75
2023/06/25 00:43:20;;;;;;;11.60;7.00;;;;;;;11.02;100.00;93461.94;2103976;27;20039;-74
2023/06/25 00:44:30;;;;;;;9.63;7.00;;;;;;;10.95;100.00;93467.38;2112085;27;20065;-74
2023/06/25 00:45:39;;;;;;;9.75;6.72;;;;;;;10.92;100.00;93468.19;2110635;28;20814;-75
2023/06/25 00:46:48;;;;;;;12.15;7.75;;;;;;;10.93;100.00;93459.00;2115270;27;20040;-73
2023/06/25 00:47:56;;;;;;;11.63;7.68;;;;;;;10.92;100.00;93460.19;2118485;27;20118;-76
2023/06/25 00:49:06;;;;;;;10.93;7.80;;;;;;;10.92;100.00;93465.53;2107430;28;20487;-76
2023/06/25 00:50:15;;;;;;;10.00;7.63;;;;;;;10.97;100.00;93462.38;2109762;28;20031;-74
2023/06/25 00:51:27;;;;;;;9.02;7.32;;;;;;;10.94;100.00;93457.88;2108128;28;20497;-74
2023/06/25 00:52:33;;;;;;;8.32;6.80;;;;;;;10.95;100.00;93459.38;2110412;28;20066;-75
2023/06/25 00:53:40;;;;;;;9.68;7.45;;;;;;;10.93;100.00;93450.97;2120453;27;20211;-74
2023/06/25 00:54:47;;;;;;;10.45;7.32;;;;;;;10.99;100.00;93452.78;2112808;27;20031;-73
2023/06/25 00:55:55;;;;;;;11.35;7.30;;;;;;;10.94;100.00;93447.91;2117533;27;20136;-73
2023/06/25 00:57:03;;;;;;;12.48;7.85;;;;;;;10.90;100.00;93457.91;2107571;28;20026;-75
2023/06/25 00:58:12;;;;;;;13.90;8.18;;;;;;;10.91;100.00;93456.00;2107567;28;20121;-74
2023/06/25 00:59:23;;;;;;;12.25;7.85;;;;;;;10.90;100.00;93449.16;2113766;27;20027;-73
2023/06/25 01:00:37;;;;;;;11.30;7.95;;;;;;;10.83;100.00;93453.44;2119037;27;20027;-74
2023/06/25 01:01:54;;;;;;;9.57;7.35;;;;;;;10.82;100.00;93445.84;2113468;28;20495;-74
2023/06/25 01:03:07;;;;;;;10.63;7.53;;;;;;;10.78;100.00;93451.25;2108755;28;20092;-74
2023/06/25 01:04:27;;;;;;;10.65;8.20;;;;;;;10.78;100.00;93453.91;2111963;27;20452;-74
2023/06/25 01:05:40;;;;;;;11.63;7.90;;;;;;;10.80;100.00;93446.25;2122445;27;20601;-74
2023/06/25 01:06:52;;;;;;;10.25;7.90;;;;;;;10.76;100.00;93450.91;2105225;28;20043;-77
2023/06/25 01:08:03;;;;;;;12.02;8.38;;;;;;;10.79;100.00;93450.06;2105262;27;20042;-74
2023/06/25 01:09:13;;;;;;;10.88;7.72;;;;;;;10.75;100.00;93451.28;2118012;27;20027;-75
2023/06/25 01:10:16;;;;;;;;;;;;;;;10.77;100.00;93451.66;2128980;27;20114;-74
2023/06/25 01:11:25;;;;;;;10.88;7.70;;;;;;;10.80;100.00;93448.16;2107948;28;20263;-74
2023/06/25 01:12:33;;;;;;;13.68;8.88;;;;;;;10.81;100.00;93444.34;2100966;28;20074;-73
2023/06/25 01:13:38;;;;;;;10.65;7.82;;;;;;;10.73;100.00;93443.69;2107104;28;20535;-73
2023/06/25 01:14:49;;;;;;;13.05;8.02;;;;;;;10.68;100.00;93443.41;2117147;27;20088;-73
2023/06/25 01:15:55;;;;;;;12.32;8.07;;;;;;;10.73;100.00;93446.38;2117368;27;20023;-73
2023/06/25 01:17:05;;;;;;;11.70;7.85;;;;;;;10.69;100.00;93448.34;2119696;27;20068;-74
2023/06/25 01:18:13;;;;;;;11.43;8.45;;;;;;;10.76;100.00;93440.22;2118336;27;20287;-74
2023/06/25 01:19:25;;;;;;;10.30;7.88;;;;;;;10.63;100.00;93438.53;2117574;27;20097;-73
2023/06/25 01:20:31;;;;;;;12.45;8.18;;;;;;;10.59;100.00;93436.66;2115031;27;20055;-74
2023/06/25 01:21:39;;;;;;;9.68;7.57;;;;;;;10.58;100.00;93437.84;2114568;27;20042;-74
2023/06/25 01:22:51;;;;;;;11.70;7.65;;;;;;;10.52;100.00;93434.09;2117536;27;20125;-74
2023/06/25 01:24:02;;;;;;;11.32;8.20;;;;;;;10.56;100.00;93434.81;2117906;27;20039;-73
2023/06/25 01:25:13;;;;;;;11.07;7.80;;;;;;;10.46;100.00;93427.72;2116910;27;20115;-73
2023/06/25 01:26:23;;;;;;;13.25;8.60;;;;;;;10.43;100.00;93425.09;2119072;27;20492;-74
2023/06/25 01:27:34;;;;;;;12.40;8.10;;;;;;;10.53;100.00;93429.50;2120172;27;20079;-72
2023/06/25 01:28:43;;;;;;;14.63;8.95;;;;;;;10.52;100.00;93433.34;2116331;27;20106;-73
2023/06/25 01:29:55;;;;;;;15.75;8.13;;;;;;;10.51;100.00;93431.84;2120703;27;20027;-73
2023/06/25 01:31:05;;;;;;;10.73;7.95;;;;;;;10.45;100.00;93426.22;2120373;27;20145;-75
2023/06/25 01:32:11;;;;;;;10.93;8.10;;;;;;;10.37;100.00;93424.06;2117341;27;20110;-75
2023/06/25 01:33:20;;;;;;;15.80;8.48;;;;;;;10.35;100.00;93427.13;2116697;27;20142;-75
2023/06/25 01:34:27;;;;;;;9.73;7.82;;;;;;;10.37;100.00;93429.41;2117531;27;20032;-75
2023/06/25 01:35:29;;;;;;;13.32;8.13;;;;;;;10.30;100.00;93424.91;2117118;27;20035;-74
2023/06/25 01:36:40;;;;;;;11.30;8.35;;;;;;;10.39;100.00;93427.81;2114676;27;20104;-73
2023/06/25 01:37:49;;;;;;;14.30;8.50;;;;;;;10.38;100.00;93433.59;2117885;27;20023;-74
2023/06/25 01:38:58;;;;;;;13.10;8.32;;;;;;;10.34;100.00;93425.63;2117597;27;20125;-74
2023/06/25 01:40:03;;;;;;;10.68;8.20;;;;;;;10.35;100.00;93429.78;2119851;27;20027;-73
2023/06/25 01:41:10;;;;;;;10.27;7.75;;;;;;;10.37;100.00;93421.41;2108534;28;20386;-74
2023/06/25 01:42:21;;;;;;;13.70;8.55;;;;;;;10.35;100.00;93429.78;2090966;28;20079;-73
2023/06/25 01:43:27;;;;;;;13.82;8.77;;;;;;;10.32;100.00;93422.63;2099957;28;20973;-75
2023/06/25 01:44:38;;;;;;;13.82;9.40;;;;;;;10.38;100.00;93422.91;2103256;28;20041;-74
2023/06/25 01:45:45;;;;;;;10.57;8.52;;;;;;;10.30;100.00;93423.00;2103804;28;20032;-74
2023/06/25 01:46:53;;;;;;;10.27;8.50;;;;;;;10.30;100.00;93419.56;2100926;28;20032;-73
2023/06/25 01:47:58;;;;;;;12.60;8.60;;;;;;;10.28;100.00;93419.25;2105975;28;20028;-75
2023/06/25 01:49:08;;;;;;;10.32;8.18;;;;;;;10.25;100.00;93418.13;2118502;27;20043;-73
2023/06/25 01:50:14;;;;;;;;;;;;;;;10.30;100.00;93412.31;2114182;27;20028;-74
2023/06/25 01:51:24;;;;;;;13.70;8.25;;;;;;;10.28;100.00;93413.91;2116872;27;19938;-74
2023/06/25 01:52:31;;;;;;;12.27;8.25;;;;;;;10.27;100.00;93412.38;2121338;27;20088;-73
2023/06/25 01:53:40;;;;;;;13.25;8.35;;;;;;;10.17;100.00;93410.59;2116964;27;20027;-75
2023/06/25 01:54:46;;;;;;;11.85;8.73;;;;;;;10.12;100.00;93408.38;2109930;27;20519;-74
2023/06/25 01:55:56;;;;;;;11.50;8.45;;;;;;;10.12;100.00;93409.13;2118747;27;20031;-73
2023/06/25 01:56:59;;;;;;;16.60;8.80;;;;;;;10.18;100.00;93412.84;2117367;27;20127;-73
2023/06/25 01:58:00;;;;;;;12.57;8.77;;;;;;;10.22;100.00;93410.13;2107582;28;20027;-73
2023/06/25 01:59:01;;;;;;;11.57;8.52;;;;;;;10.23;100.00;93400.97;2115703;27;20046;-74
2023/06/25 02:00:11;;;;;;;12.27;8.38;;;;;;;10.10;100.00;93403.47;2106907;28;20111;-73
2023/06/25 02:01:20;;;;;;;13.13;9.20;;;;;;;10.10;100.00;93398.13;2117127;27;20035;-73
2023/06/25 02:02:27;;;;;;;12.40;8.50;;;;;;;10.16;100.00;93401.81;2117994;27;20516;-74
2023/06/25 02:03:31;;;;;;;11.20;8.50;;;;;;;10.13;100.00;93401.88;2120436;27;20150;-73
2023/06/25 02:04:39;;;;;;;12.43;8.30;;;;;;;10.12;100.00;93392.34;2108355;28;20035;-73
2023/06/25 02:05:43;;;;;;;13.70;8.30;;;;;;;10.14;100.00;93392.69;2109220;27;20031;-74
2023/06/25 02:06:51;;;;;;;12.50;8.65;;;;;;;9.98;100.00;93396.75;2115095;27;20110;-73
2023/06/25 02:07:59;;;;;;;12.95;8.73;;;;;;;9.95;100.00;93397.56;2116913;27;20047;-74
2023/06/25 02:09:07;;;;;;;12.77;9.18;;;;;;;10.00;100.00;93397.09;2108681;28;20126;-74
2023/06/25 02:10:15;;;;;;;12.57;9.18;;;;;;;9.97;100.00;93394.50;2112136;28;20027;-73
2023/06/25 02:11:21;;;;;;;13.75;8.63;;;;;;;10.02;100.00;93389.44;2116845;27;20054;-74
2023/06/25 02:12:24;;;;;;;13.63;8.75;;;;;;;9.87;100.00;93390.81;2119186;27;20030;-75
2023/06/25 02:13:32;;;;;;;13.45;8.93;;;;;;;9.97;100.00;93387.25;2117832;27;20114;-74
2023/06/25 02:14:38;;;;;;;10.57;8.15;;;;;;;9.88;100.00;93389.66;2117328;27;20030;-74
2023/06/25 02:15:47;;;;;;;13.10;8.52;;;;;;;10.01;100.00;93387.19;2119672;27;20065;-74
2023/06/25 02:16:57;;;;;;;11.68;8.15;;;;;;;10.00;100.00;93393.69;2116201;27;20051;-74
2023/06/25 02:18:05;;;;;;;14.75;9.10;;;;;;;10.05;100.00;93388.66;2117682;28;20039;-74
2023/06/25 02:19:11;;;;;;;13.15;8.82;;;;;;;10.05;100.00;93382.53;2115938;27;20065;-74
2023/06/25 02:21:44;;;;;;;;;;;;;;;9.92;100.00;93377.03;2133176;27;20187;-71
2023/06/25 02:22:51;;;;;;;11.43;8.45;;;;;;;9.98;100.00;93380.75;2133246;27;20658;-75
2023/06/25 02:24:00;;;;;;;16.40;8.95;;;;;;;9.97;100.00;93383.81;2134236;27;20046;-75
2023/06/25 02:25:24;;;;;;;12.43;9.23;;;;;;;9.91;100.00;93378.16;2129756;27;20062;-75
2023/06/25 02:26:30;;;;;;;14.43;8.60;;;;;;;9.97;100.00;93384.56;2133955;27;20251;-75
2023/06/25 02:27:39;;;;;;;12.57;8.68;;;;;;;9.87;100.00;93379.38;2139177;27;20026;-75
2023/06/25 02:28:44;;;;;;;16.77;8.98;;;;;;;9.68;100.00;93389.56;2128274;27;20365;-72
2023/06/25 02:29:50;;;;;;;11.50;8.80;;;;;;;9.77;100.00;93386.38;2114067;27;20034;-72
2023/06/25 02:30:58;;;;;;;12.55;9.02;;;;;;;9.86;100.00;93381.28;2122669;27;20030;-72
2023/06/25 02:32:03;;;;;;;12.55;9.10;;;;;;;9.81;100.00;93379.09;2129412;27;20116;-74
2023/06/25 02:33:08;;;;;;;14.23;9.30;;;;;;;9.84;100.00;93384.38;2131681;27;20080;-74
2023/06/25 02:34:16;;;;;;;15.23;8.88;;;;;;;9.87;100.00;93382.78;2127542;27;20113;-72
2023/06/25 02:35:23;;;;;;;11.77;8.55;;;;;;;9.84;100.00;93384.38;2129387;27;20446;-74
2023/06/25 02:36:31;;;;;;;14.25;9.38;;;;;;;9.76;100.00;93395.56;2133211;27;20038;-74
2023/06/25 02:37:38;;;;;;;12.05;8.57;;;;;;;9.69;100.00;93388.41;2118459;27;20057;-74
2023/06/25 02:38:49;;;;;;;12.48;9.05;;;;;;;9.71;100.00;93391.44;2116368;27;20028;-75
2023/06/25 02:39:54;;;;;;;;;;;;;;;9.70;100.00;93389.16;2132170;27;20054;-74
2023/06/25 02:41:00;;;;;;;14.85;9.63;;;;;;;9.81;100.00;93389.75;2130748;27;19923;-74
2023/06/25 02:42:03;;;;;;;12.95;8.27;;;;;;;9.80;100.00;93391.69;2125749;27;20027;-74
2023/06/25 02:43:07;;;;;;;12.43;9.00;;;;;;;9.69;100.00;93385.72;2134381;27;20073;-75
2023/06/25 02:44:15;;;;;;;11.70;9.13;;;;;;;9.71;100.00;93390.69;2129218;27;20034;-74
2023/06/25 02:45:21;;;;;;;13.88;8.70;;;;;;;9.61;100.00;93386.22;2128643;27;20031;-74
2023/06/25 02:46:27;;;;;;;14.50;9.18;;;;;;;9.70;100.00;93383.81;2135031;27;20436;-75
2023/06/25 02:47:36;;;;;;;12.70;9.25;;;;;;;9.73;100.00;93383.00;2123137;27;20043;-72
2023/06/25 02:48:44;;;;;;;13.25;9.30;;;;;;;9.88;100.00;93373.66;2120459;27;20055;-75
2023/06/25 02:49:52;;;;;;;12.80;9.02;;;;;;;9.77;100.00;93375.72;2129171;27;20035;-75
2023/06/25 02:50:57;;;;;;;17.98;9.27;;;;;;;9.76;100.00;93379.53;2130222;27;20036;-75
2023/06/25 02:52:01;;;;;;;12.38;8.93;;;;;;;9.66;100.00;93383.88;2128904;27;20030;-75
2023/06/25 02:53:08;;;;;;;12.48;9.23;;;;;;;9.67;100.00;93384.63;2131072;27;20026;-75
2023/06/25 02:54:16;;;;;;;16.00;9.27;;;;;;;9.53;100.00;93381.00;2118330;27;20041;-76
2023/06/25 02:55:23;;;;;;;14.68;9.40;;;;;;;9.47;100.00;93385.25;2123705;27;20032;-75
2023/06/25 02:56:32;;;;;;;13.98;8.77;;;;;;;9.49;100.00;93376.88;2132483;27;20023;-74
2023/06/25 02:57:40;;;;;;;14.85;8.57;;;;;;;9.54;100.00;93376.41;2132383;27;20141;-75
2023/06/25 02:58:46;;;;;;;18.65;9.02;;;;;;;9.45;100.00;93378.84;2115371;27;20028;-75
2023/06/25 02:59:53;;;;;;;13.73;8.98;;;;;;;9.51;100.00;93375.28;2113486;28;20106;-74
2023/06/25 03:01:02;;;;;;;15.70;9.75;;;;;;;9.51;100.00;93377.97;2117966;27;20043;-76
2023/06/25 03:02:09;;;;;;;13.70;9.05;;;;;;;9.55;100.00;93381.34;2127445;27;20019;-76
2023/06/25 03:03:11;;;;;;;15.52;9.65;;;;;;;9.59;100.00;93378.63;2115027;27;20034;-76
2023/06/25 03:04:20;;;;;;;15.52;8.57;;;;;;;9.62;100.00;93374.41;2103888;28;20033;-74
2023/06/25 03:05:26;;;;;;;11.82;8.60;;;;;;;9.64;100.00;93374.75;2116075;27;20118;-76
2023/06/25 03:06:35;;;;;;;13.05;9.10;;;;;;;9.54;100.00;93371.84;2129670;27;20026;-74
2023/06/25 03:07:57;;;;;;;14.88;9.23;;;;;;;9.53;100.00;93377.59;2131789;27;20037;-74
2023/06/25 03:09:02;;;;;;;14.18;8.75;;;;;;;9.47;100.00;93379.16;2126137;27;20069;-74
2023/06/25 03:10:12;;;;;;;14.18;8.65;;;;;;;9.46;100.00;93380.34;2128808;27;20022;-75
2023/06/25 03:11:15;;;;;;;;;;;;;;;9.44;100.00;93386.09;2129324;27;20046;-74
2023/06/25 03:12:22;;;;;;;12.13;7.88;;;;;;;9.34;100.00;93378.94;2132075;27;19919;-74
2023/06/25 03:13:30;;;;;;;12.68;8.93;;;;;;;9.41;100.00;93378.13;2130822;27;20502;-74
2023/06/25 03:14:38;;;;;;;11.20;8.43;;;;;;;9.44;100.00;93375.41;2131858;27;20362;-75
2023/06/25 03:15:44;;;;;;;13.63;9.15;;;;;;;9.43;100.00;93381.13;2129865;27;20129;-75
2023/06/25 03:16:51;;;;;;;13.10;9.05;;;;;;;9.44;100.00;93369.28;2127576;27;20030;-75
2023/06/25 03:17:58;;;;;;;12.00;8.15;;;;;;;9.50;100.00;93371.13;2124527;27;20055;-74
2023/06/25 03:19:08;;;;;;;11.43;8.77;;;;;;;9.49;100.00;93368.88;2130020;27;20026;-74
2023/06/25 03:20:14;;;;;;;;;;;;;;;9.50;100.00;93371.13;2128331;27;20516;-75
2023/06/25 03:21:22;;;;;;;12.32;8.32;;;;;;;9.34;100.00;93378.94;2130686;27;19919;-74
2023/06/25 03:22:27;;;;;;;15.43;8.50;;;;;;;9.29;100.00;93379.41;2131683;27;20041;-75
2023/06/25 03:23:30;;;;;;;12.68;8.85;;;;;;;9.34;100.00;93377.03;2131813;27;20043;-75
2023/06/25 03:24:33;;;;;;;13.95;8.82;;;;;;;9.43;100.00;93370.47;2114367;27;20035;-77
2023/06/25 03:25:38;;;;;;;12.88;9.20;;;;;;;9.50;100.00;93373.03;2114709;27;20031;-76
2023/06/25 03:26:44;;;;;;;14.32;9.68;;;;;;;9.45;100.00;93368.91;2118846;27;20680;-74
2023/06/25 03:27:54;;;;;;;12.60;8.55;;;;;;;9.34;100.00;93373.63;2132109;27;20047;-77
2023/06/25 03:29:03;;;;;;;15.40;9.70;;;;;;;9.34;100.00;93370.94;2129985;27;20042;-75
2023/06/25 03:30:09;;;;;;;11.77;8.80;;;;;;;9.26;100.00;93370.31;2115307;28;20470;-75
2023/06/25 03:31:14;;;;;;;12.07;8.73;;;;;;;9.33;100.00;93375.53;2121152;27;20060;-74
2023/06/25 03:32:20;;;;;;;12.57;8.93;;;;;;;9.41;100.00;93381.53;2126692;27;20033;-73
2023/06/25 03:33:27;;;;;;;11.52;8.63;;;;;;;9.31;100.00;93371.78;2102771;28;20486;-75
2023/06/25 03:34:34;;;;;;;13.02;9.98;;;;;;;9.36;100.00;93375.91;2101101;28;20055;-75
2023/06/25 03:35:43;;;;;;;16.10;9.57;;;;;;;9.34;100.00;93373.63;2111219;27;20493;-75
2023/06/25 03:36:50;;;;;;;11.32;8.82;;;;;;;9.29;100.00;93376.72;2118204;27;20126;-73
2023/06/25 03:37:59;;;;;;;13.40;8.70;;;;;;;9.34;100.00;93373.63;2110104;27;20686;-75
2023/06/25 03:39:06;;;;;;;12.60;9.38;;;;;;;9.23;100.00;93371.09;2100232;28;20128;-75
2023/06/25 03:40:14;;;;;;;11.75;8.70;;;;;;;9.26;100.00;93372.97;2108410;28;20028;-75
2023/06/25 03:41:25;;;;;;;13.48;8.80;;;;;;;9.27;100.00;93369.16;2102558;28;20040;-75
2023/06/25 03:42:34;;;;;;;13.82;8.45;;;;;;;9.44;100.00;93371.97;2106054;27;20046;-75
2023/06/25 03:43:42;;;;;;;10.98;8.18;;;;;;;9.25;100.00;93371.44;2099527;28;20299;-76
2023/06/25 03:45:06;;;;;;;11.63;8.98;;;;;;;9.29;100.00;93371.41;2107667;27;20124;-75
2023/06/25 03:46:12;;;;;;;14.45;9.48;;;;;;;9.33;100.00;93372.13;2120823;27;20072;-75
2023/06/25 03:47:17;;;;;;;10.98;8.73;;;;;;;9.35;100.00;93369.81;2105970;28;20035;-75
2023/06/25 03:48:24;;;;;;;12.60;9.15;;;;;;;9.28;100.00;93369.91;2109220;28;20054;-75
2023/06/25 03:49:32;;;;;;;14.75;9.25;;;;;;;9.39;100.00;93372.41;2104978;27;20047;-75
2023/06/25 03:50:38;;;;;;;13.40;9.15;;;;;;;9.41;100.00;93367.44;2111832;27;20034;-77
2023/06/25 03:51:46;;;;;;;15.30;9.43;;;;;;;9.40;100.00;93366.69;2115701;27;20622;-75
2023/06/25 03:52:51;;;;;;;15.65;9.10;;;;;;;9.36;100.00;93367.91;2118283;27;20023;-76
2023/06/25 03:53:58;;;;;;;14.73;9.07;;;;;;;9.48;100.00;93365.44;2113845;27;20101;-74
2023/06/25 03:55:06;;;;;;;12.48;9.20;;;;;;;9.45;100.00;93362.81;2108952;27;20020;-74
2023/06/25 03:56:14;;;;;;;16.13;9.50;;;;;;;9.39;100.00;93367.06;2102638;28;20115;-75
2023/06/25 03:57:23;;;;;;;17.20;9.43;;;;;;;9.43;100.00;93357.88;2095959;27;20075;-75
2023/06/25 03:58:32;;;;;;;13.18;9.70;;;;;;;9.39;100.00;93357.16;2109691;27;20423;-74
2023/06/25 03:59:41;;;;;;;14.98;9.05;;;;;;;9.46;100.00;93359.00;2108066;27;20040;-76
2023/06/25 04:00:50;;;;;;;12.02;9.02;;;;;;;9.44;100.00;93361.28;2102557;27;20459;-75
2023/06/25 04:01:54;;;;;;;14.10;10.05;;;;;;;9.41;100.00;93359.44;2103479;28;20032;-78
2023/06/25 04:03:02;;;;;;;13.90;9.20;;;;;;;9.34;100.00;93355.69;2107475;28;20039;-75
2023/06/25 04:04:11;;;;;;;17.15;9.20;;;;;;;9.33;100.00;93358.78;2101793;27;20043;-75
2023/06/25 04:05:20;;;;;;;12.93;8.87;;;;;;;9.40;100.00;93358.69;2108347;27;20055;-77
2023/06/25 04:06:26;;;;;;;14.15;9.23;;;;;;;9.42;100.00;93356.38;2110199;27;20453;-75
2023/06/25 04:07:32;;;;;;;18.55;9.70;;;;;;;9.45;100.00;93352.91;2109929;27;20099;-74
2023/06/25 04:08:44;;;;;;;17.95;9.98;;;;;;;9.49;100.00;93352.84;2105410;28;20094;-74
2023/06/25 04:09:52;;;;;;;17.13;10.15;;;;;;;9.51;100.00;93356.63;2104918;27;20043;-75
2023/06/25 04:11:00;;;;;;;11.93;8.98;;;;;;;9.42;100.00;93359.03;2100839;28;20032;-74
2023/06/25 04:12:06;;;;;;;12.32;8.65;;;;;;;9.53;100.00;93361.56;2101101;28;20044;-74
2023/06/25 04:13:11;;;;;;;12.20;8.93;;;;;;;9.53;100.00;93356.97;2101292;28;20040;-75
2023/06/25 04:14:15;;;;;;;13.23;9.85;;;;;;;9.50;100.00;93357.03;2097908;28;20441;-74
2023/06/25 04:15:21;;;;;;;14.68;9.10;;;;;;;9.49;100.00;93358.94;2108870;27;20036;-75
2023/06/25 04:16:27;;;;;;;15.20;9.52;;;;;;;9.45;100.00;93352.91;2118118;27;20031;-76
2023/06/25 04:17:34;;;;;;;16.02;9.27;;;;;;;9.49;100.00;93353.63;2118673;27;20027;-74
2023/06/25 04:18:43;;;;;;;16.30;9.90;;;;;;;9.57;100.00;93354.28;2115728;27;20023;-74
2023/06/25 04:19:47;;;;;;;13.20;9.17;;;;;;;9.68;100.00;93354.88;2106214;27;20093;-75
2023/06/25 04:20:55;;;;;;;12.70;9.70;;;;;;;9.66;100.00;93353.75;2107823;27;21037;-75
2023/06/25 04:22:01;;;;;;;13.50;9.90;;;;;;;9.69;100.00;93348.34;2107683;28;20032;-73
2023/06/25 04:23:10;;;;;;;13.30;9.10;;;;;;;9.70;100.00;93349.88;2108835;28;20024;-76
2023/06/25 04:24:12;;;;;;;21.60;10.38;;;;;;;9.73;100.00;93348.31;2108223;27;20143;-76
2023/06/25 04:25:19;;;;;;;18.88;9.65;;;;;;;9.79;100.00;93346.72;2108297;27;20118;-74
2023/06/25 04:26:24;;;;;;;14.23;9.25;;;;;;;9.76;100.00;93344.84;2109807;27;20429;-76
2023/06/25 04:27:28;;;;;;;20.33;9.98;;;;;;;9.74;100.00;93347.16;2094293;28;20111;-74
2023/06/25 04:28:35;;;;;;;15.07;9.05;;;;;;;9.84;100.00;93343.59;2106620;27;20024;-75
2023/06/25 04:29:44;;;;;;;17.05;10.10;;;;;;;9.81;100.00;93345.13;2116220;27;20027;-73
2023/06/25 04:30:51;;;;;;;15.25;9.63;;;;;;;9.88;100.00;93340.84;2103327;27;20566;-75
2023/06/25 04:31:58;;;;;;;15.10;10.20;;;;;;;9.90;100.00;93349.97;2099729;28;20021;-76
2023/06/25 04:33:04;;;;;;;15.85;9.88;;;;;;;9.89;100.00;93342.38;2107609;28;20024;-77
2023/06/25 04:34:09;;;;;;;14.88;9.80;;;;;;;9.96;100.00;93342.22;2101834;28;20043;-74
2023/06/25 04:35:17;;;;;;;12.75;9.55;;;;;;;10.05;100.00;93342.47;2112462;27;20673;-74
2023/06/25 04:36:24;;;;;;;19.65;10.40;;;;;;;10.00;100.00;93345.59;2125593;27;20068;-74
2023/06/25 04:37:41;;;;;;;12.82;9.63;;;;;;;10.05;100.00;93347.81;2115806;27;20671;-74
2023/06/25 04:38:50;;;;;;;12.65;9.18;;;;;;;10.14;100.00;93349.97;2115461;27;20031;-76
2023/06/25 04:39:57;;;;;;;16.27;9.93;;;;;;;10.25;100.00;93348.66;2110534;27;20164;-74
2023/06/25 04:41:07;;;;;;;14.75;9.50;;;;;;;10.25;100.00;93351.34;2117345;27;20359;-74
2023/06/25 04:42:13;;;;;;;16.30;9.60;;;;;;;10.30;100.00;93350.09;2102049;28;20056;-77
2023/06/25 04:43:18;;;;;;;15.75;9.45;;;;;;;10.30;100.00;93352.78;2118336;27;20110;-74
2023/06/25 04:44:27;;;;;;;17.48;10.30;;;;;;;10.27;100.00;93353.59;2122714;27;20091;-73
2023/06/25 04:45:34;;;;;;;16.42;9.65;;;;;;;10.31;100.00;93349.69;2119810;27;20032;-74
2023/06/25 04:46:42;;;;;;;16.23;9.73;;;;;;;10.33;100.00;93351.97;2111827;27;20055;-73
2023/06/25 04:47:47;;;;;;;13.07;9.90;;;;;;;10.38;100.00;93353.41;2112906;27;20036;-74
2023/06/25 04:48:52;;;;;;;15.10;10.02;;;;;;;10.38;100.00;93348.81;2109262;27;20043;-73
2023/06/25 04:50:00;;;;;;;19.05;9.75;;;;;;;10.41;100.00;93344.59;2107740;28;20039;-74
2023/06/25 04:51:07;;;;;;;12.82;9.65;;;;;;;10.44;100.00;93355.19;2124489;27;20083;-74
2023/06/25 04:52:18;;;;;;;17.38;10.00;;;;;;;10.47;100.00;93349.06;2109537;27;20161;-76
2023/06/25 04:53:29;;;;;;;15.40;9.70;;;;;;;10.47;100.00;93354.41;2103061;27;20081;-76
2023/06/25 04:54:38;;;;;;;18.00;11.10;;;;;;;10.54;100.00;93356.94;2108924;28;20043;-75
2023/06/25 04:55:46;;;;;;;15.40;9.85;;;;;;;10.55;100.00;93349.69;2113439;27;20065;-76
2023/06/25 04:56:55;;;;;;;16.77;10.18;;;;;;;10.62;100.00;93354.88;2127553;27;20039;-76
2023/06/25 04:58:04;;;;;;;16.23;10.10;;;;;;;10.71;100.00;93352.44;2109786;28;20200;-74
2023/06/25 04:59:13;;;;;;;11.77;9.10;;;;;;;10.78;100.00;93351.56;2096058;28;20044;-74
2023/06/25 05:00:15;;;;;;;15.73;9.85;;;;;;;10.76;100.00;93359.25;2090453;28;20071;-74
2023/06/25 05:01:16;;;;;;;21.40;11.35;;;;;;;10.85;100.00;93359.44;2096965;28;20060;-74
2023/06/25 05:02:17;;;;;;;17.20;10.02;;;;;;;10.84;100.00;93353.34;2112496;27;20472;-74
2023/06/25 05:03:18;;;;;;;15.25;9.85;;;;;;;10.94;100.00;93359.66;2115499;27;20031;-77
2023/06/25 05:04:19;;;;;;;17.58;10.35;;;;;;;10.92;100.00;93353.94;2113930;27;20542;-74
2023/06/25 05:05:21;;;;;;;15.60;10.43;;;;;;;10.99;100.00;93351.16;2110957;28;20549;-74
2023/06/25 05:06:22;;;;;;;17.95;10.50;;;;;;;11.03;100.00;93359.09;2114994;27;20062;-73
2023/06/25 05:07:23;;;;;;;18.58;10.55;;;;;;;11.08;100.00;93359.38;2113211;27;20032;-74
2023/06/25 05:08:25;;;;;;;15.48;10.60;;;;;;;11.10;100.00;93351.69;2111355;27;20449;-74
2023/06/25 05:09:26;;;;;;;18.13;10.40;;;;;;;11.14;100.00;93353.53;2111410;27;20455;-73
2023/06/25 05:10:29;;;;;;;21.88;11.18;;;;;;;11.20;100.00;93351.91;2110532;28;20039;-77